sensor_id;sensor_type;location;lat;lon;timestamp;pressure;altitude;pressure_sealevel;temperature;humidity
28701;BME280;15877;52.344;16.790;2023-04-28T00:02:13;101116.08;;;7.36;58.77
28701;BME280;15877;52.344;16.790;2023-04-28T00:04:46;101120.21;;;7.32;58.91
28701;BME280;15877;52.344;16.790;2023-04-28T00:07:18;101119.79;;;7.33;58.85
28701;BME280;15877;52.344;16.790;2023-04-28T00:09:51;101118.69;;;7.33;58.97
28701;BME280;15877;52.344;16.790;2023-04-28T00:12:23;101117.05;;;7.34;58.93
28701;BME280;15877;52.344;16.790;2023-04-28T00:14:56;101115.10;;;7.34;58.89
28701;BME280;15877;52.344;16.790;2023-04-28T00:17:28;101114.33;;;7.33;58.72
28701;BME280;15877;52.344;16.790;2023-04-28T00:20:01;101105.90;;;7.25;58.62
28701;BME280;15877;52.344;16.790;2023-04-28T00:22:34;101120.80;;;7.32;58.53
28701;BME280;15877;52.344;16.790;2023-04-28T00:25:08;101116.23;;;7.30;58.34
28701;BME280;15877;52.344;16.790;2023-04-28T00:27:41;101118.14;;;7.29;58.00
28701;BME280;15877;52.344;16.790;2023-04-28T00:30:14;101120.73;;;7.28;58.14
28701;BME280;15877;52.344;16.790;2023-04-28T00:32:47;101115.46;;;7.28;58.00
28701;BME280;15877;52.344;16.790;2023-04-28T00:35:20;101116.57;;;7.30;57.88
28701;BME280;15877;52.344;16.790;2023-04-28T00:37:52;101116.67;;;7.28;57.90
28701;BME280;15877;52.344;16.790;2023-04-28T00:40:33;101120.58;;;7.27;58.52
28701;BME280;15877;52.344;16.790;2023-04-28T00:43:06;101121.67;;;7.28;58.89
28701;BME280;15877;52.344;16.790;2023-04-28T00:45:39;101121.55;;;7.25;58.89
28701;BME280;15877;52.344;16.790;2023-04-28T00:48:11;101119.48;;;7.24;58.91
28701;BME280;15877;52.344;16.790;2023-04-28T00:50:45;101117.41;;;7.24;58.74
28701;BME280;15877;52.344;16.790;2023-04-28T00:53:19;101110.91;;;7.18;58.60
28701;BME280;15877;52.344;16.790;2023-04-28T00:55:53;101109.58;;;7.17;58.58
28701;BME280;15877;52.344;16.790;2023-04-28T00:58:27;101109.70;;;7.13;58.75
28701;BME280;15877;52.344;16.790;2023-04-28T01:01:04;101112.31;;;7.11;58.83
28701;BME280;15877;52.344;16.790;2023-04-28T01:03:39;101112.67;;;7.12;58.92
28701;BME280;15877;52.344;16.790;2023-04-28T01:06:12;101103.96;;;7.12;58.63
28701;BME280;15877;52.344;16.790;2023-04-28T01:08:48;101104.05;;;7.09;58.38
28701;BME280;15877;52.344;16.790;2023-04-28T01:11:21;101105.12;;;7.08;58.29
28701;BME280;15877;52.344;16.790;2023-04-28T01:14:07;101095.39;;;6.99;58.23
28701;BME280;15877;52.344;16.790;2023-04-28T01:16:42;101104.80;;;7.01;58.45
28701;BME280;15877;52.344;16.790;2023-04-28T01:19:18;101102.91;;;6.98;58.67
28701;BME280;15877;52.344;16.790;2023-04-28T01:21:52;101105.45;;;6.94;58.78
28701;BME280;15877;52.344;16.790;2023-04-28T01:24:26;101100.95;;;6.90;58.64
28701;BME280;15877;52.344;16.790;2023-04-28T01:27:00;101097.89;;;6.88;58.73
28701;BME280;15877;52.344;16.790;2023-04-28T01:29:33;101098.17;;;6.85;58.59
28701;BME280;15877;52.344;16.790;2023-04-28T01:32:06;101097.05;;;6.85;58.36
28701;BME280;15877;52.344;16.790;2023-04-28T01:34:38;101096.02;;;6.81;58.43
28701;BME280;15877;52.344;16.790;2023-04-28T01:37:11;101102.83;;;6.83;58.45
28701;BME280;15877;52.344;16.790;2023-04-28T01:39:43;101103.66;;;6.79;58.69
28701;BME280;15877;52.344;16.790;2023-04-28T01:42:16;101105.45;;;6.78;58.43
28701;BME280;15877;52.344;16.790;2023-04-28T01:44:48;101106.41;;;6.72;58.48
28701;BME280;15877;52.344;16.790;2023-04-28T01:47:20;101098.81;;;6.70;58.50
28701;BME280;15877;52.344;16.790;2023-04-28T01:49:53;101102.70;;;6.70;58.60
28701;BME280;15877;52.344;16.790;2023-04-28T01:52:26;101101.92;;;6.67;58.58
28701;BME280;15877;52.344;16.790;2023-04-28T01:54:59;101099.33;;;6.67;58.58
28701;BME280;15877;52.344;16.790;2023-04-28T01:57:31;101097.48;;;6.66;58.63
28701;BME280;15877;52.344;16.790;2023-04-28T02:00:09;101099.58;;;6.66;58.60
28701;BME280;15877;52.344;16.790;2023-04-28T02:02:51;101097.52;;;6.63;58.62
28701;BME280;15877;52.344;16.790;2023-04-28T02:05:24;101091.77;;;6.60;58.59
28701;BME280;15877;52.344;16.790;2023-04-28T02:07:56;101093.92;;;6.61;58.71
28701;BME280;15877;52.344;16.790;2023-04-28T02:10:30;101093.00;;;6.59;58.77
28701;BME280;15877;52.344;16.790;2023-04-28T02:13:02;101090.39;;;6.54;58.75
28701;BME280;15877;52.344;16.790;2023-04-28T02:15:40;101091.30;;;6.53;58.73
28701;BME280;15877;52.344;16.790;2023-04-28T02:18:12;101087.39;;;6.51;58.75
28701;BME280;15877;52.344;16.790;2023-04-28T02:20:45;101085.44;;;6.50;58.91
28701;BME280;15877;52.344;16.790;2023-04-28T02:23:18;101092.05;;;6.51;59.00
28701;BME280;15877;52.344;16.790;2023-04-28T02:25:58;101088.16;;;6.46;59.05
28701;BME280;15877;52.344;16.790;2023-04-28T02:28:31;101089.76;;;6.46;59.07
28701;BME280;15877;52.344;16.790;2023-04-28T02:31:09;101090.10;;;6.43;59.09
28701;BME280;15877;52.344;16.790;2023-04-28T02:33:41;101089.44;;;6.39;59.26
28701;BME280;15877;52.344;16.790;2023-04-28T02:36:15;101094.64;;;6.41;59.05
28701;BME280;15877;52.344;16.790;2023-04-28T02:38:48;101093.41;;;6.42;59.00
28701;BME280;15877;52.344;16.790;2023-04-28T02:41:20;101095.55;;;6.40;59.11
28701;BME280;15877;52.344;16.790;2023-04-28T02:43:53;101098.36;;;6.38;59.12
28701;BME280;15877;52.344;16.790;2023-04-28T02:46:27;101093.71;;;6.37;59.09
28701;BME280;15877;52.344;16.790;2023-04-28T02:49:00;101093.13;;;6.36;58.99
28701;BME280;15877;52.344;16.790;2023-04-28T02:51:32;101093.02;;;6.32;59.17
28701;BME280;15877;52.344;16.790;2023-04-28T02:54:05;101094.52;;;6.34;59.18
28701;BME280;15877;52.344;16.790;2023-04-28T02:56:38;101082.02;;;6.23;58.99
28701;BME280;15877;52.344;16.790;2023-04-28T02:59:11;101094.36;;;6.28;59.15
28701;BME280;15877;52.344;16.790;2023-04-28T03:01:44;101099.93;;;6.28;59.14
28701;BME280;15877;52.344;16.790;2023-04-28T03:04:17;101094.27;;;6.27;59.14
28701;BME280;15877;52.344;16.790;2023-04-28T03:06:50;101099.71;;;6.26;59.11
28701;BME280;15877;52.344;16.790;2023-04-28T03:09:22;101097.21;;;6.25;59.04
28701;BME280;15877;52.344;16.790;2023-04-28T03:11:56;101092.01;;;6.21;58.97
28701;BME280;15877;52.344;16.790;2023-04-28T03:14:28;101080.94;;;6.13;58.94
28701;BME280;15877;52.344;16.790;2023-04-28T03:17:01;101074.23;;;6.08;59.07
28701;BME280;15877;52.344;16.790;2023-04-28T03:19:33;101073.42;;;6.09;58.88
28701;BME280;15877;52.344;16.790;2023-04-28T03:22:06;101086.56;;;6.18;59.09
28701;BME280;15877;52.344;16.790;2023-04-28T03:24:39;101087.64;;;6.16;59.26
28701;BME280;15877;52.344;16.790;2023-04-28T03:27:11;101088.05;;;6.14;59.01
28701;BME280;15877;52.344;16.790;2023-04-28T03:29:44;101084.52;;;6.15;58.93
28701;BME280;15877;52.344;16.790;2023-04-28T03:32:18;101081.90;;;6.11;58.97
28701;BME280;15877;52.344;16.790;2023-04-28T03:34:51;101080.92;;;6.08;58.85
28701;BME280;15877;52.344;16.790;2023-04-28T03:37:24;101071.50;;;5.99;58.82
28701;BME280;15877;52.344;16.790;2023-04-28T03:39:56;101091.17;;;6.08;58.76
28701;BME280;15877;52.344;16.790;2023-04-28T03:42:29;101092.33;;;6.06;58.75
28701;BME280;15877;52.344;16.790;2023-04-28T03:45:14;101088.36;;;6.04;58.96
28701;BME280;15877;52.344;16.790;2023-04-28T03:47:49;101085.46;;;6.03;59.03
28701;BME280;15877;52.344;16.790;2023-04-28T03:50:24;101084.11;;;6.02;59.04
28701;BME280;15877;52.344;16.790;2023-04-28T03:52:58;101086.56;;;6.02;59.00
28701;BME280;15877;52.344;16.790;2023-04-28T03:55:37;101087.41;;;6.04;58.94
28701;BME280;15877;52.344;16.790;2023-04-28T03:58:11;101081.77;;;6.02;58.87
28701;BME280;15877;52.344;16.790;2023-04-28T04:00:46;101080.90;;;5.96;58.90
28701;BME280;15877;52.344;16.790;2023-04-28T04:03:23;101093.61;;;6.00;59.15
28701;BME280;15877;52.344;16.790;2023-04-28T04:06:00;101081.21;;;5.95;59.42
28701;BME280;15877;52.344;16.790;2023-04-28T04:08:39;101088.81;;;6.02;59.47
28701;BME280;15877;52.344;16.790;2023-04-28T04:11:13;101054.14;;;5.85;59.49
28701;BME280;15877;52.344;16.790;2023-04-28T04:13:49;101070.77;;;5.95;59.57
28701;BME280;15877;52.344;16.790;2023-04-28T04:16:24;101087.77;;;6.06;59.46
28701;BME280;15877;52.344;16.790;2023-04-28T04:18:58;101088.85;;;6.07;59.87
28701;BME280;15877;52.344;16.790;2023-04-28T04:21:55;101086.85;;;6.06;59.88
28701;BME280;15877;52.344;16.790;2023-04-28T04:24:31;101095.00;;;6.07;59.93
28701;BME280;15877;52.344;16.790;2023-04-28T04:27:04;101095.27;;;6.06;60.24
28701;BME280;15877;52.344;16.790;2023-04-28T04:29:42;101090.85;;;6.09;60.31
28701;BME280;15877;52.344;16.790;2023-04-28T04:32:18;101090.71;;;6.11;60.51
28701;BME280;15877;52.344;16.790;2023-04-28T04:34:52;101092.30;;;6.14;60.82
28701;BME280;15877;52.344;16.790;2023-04-28T04:37:29;101088.95;;;6.16;60.94
28701;BME280;15877;52.344;16.790;2023-04-28T04:40:06;101086.67;;;6.17;61.24
28701;BME280;15877;52.344;16.790;2023-04-28T04:42:44;101085.01;;;6.17;61.21
28701;BME280;15877;52.344;16.790;2023-04-28T04:45:25;101092.94;;;6.23;61.69
28701;BME280;15877;52.344;16.790;2023-04-28T04:48:00;101092.65;;;6.26;62.09
28701;BME280;15877;52.344;16.790;2023-04-28T04:50:36;101090.42;;;6.32;62.15
28701;BME280;15877;52.344;16.790;2023-04-28T04:53:10;101091.70;;;6.36;62.09
28701;BME280;15877;52.344;16.790;2023-04-28T04:55:48;101091.91;;;6.38;62.20
28701;BME280;15877;52.344;16.790;2023-04-28T04:58:22;101088.66;;;6.41;62.43
28701;BME280;15877;52.344;16.790;2023-04-28T05:01:13;101091.86;;;6.47;62.68
28701;BME280;15877;52.344;16.790;2023-04-28T05:03:46;101087.63;;;6.51;62.83
28701;BME280;15877;52.344;16.790;2023-04-28T05:06:19;101088.63;;;6.52;63.43
28701;BME280;15877;52.344;16.790;2023-04-28T05:08:53;101087.58;;;6.59;63.64
28701;BME280;15877;52.344;16.790;2023-04-28T05:11:27;101087.19;;;6.63;63.94
28701;BME280;15877;52.344;16.790;2023-04-28T05:14:00;101086.58;;;6.68;63.74
28701;BME280;15877;52.344;16.790;2023-04-28T05:16:33;101079.48;;;6.73;63.71
28701;BME280;15877;52.344;16.790;2023-04-28T05:19:14;101076.86;;;6.76;64.67
28701;BME280;15877;52.344;16.790;2023-04-28T05:21:49;101077.90;;;6.81;64.74
28701;BME280;15877;52.344;16.790;2023-04-28T05:24:25;101080.53;;;6.87;65.45
28701;BME280;15877;52.344;16.790;2023-04-28T05:26:59;101080.15;;;6.90;65.28
28701;BME280;15877;52.344;16.790;2023-04-28T05:29:37;101087.58;;;6.95;65.63
28701;BME280;15877;52.344;16.790;2023-04-28T05:32:11;101087.38;;;7.03;65.63
28701;BME280;15877;52.344;16.790;2023-04-28T05:34:46;101089.16;;;7.11;65.76
28701;BME280;15877;52.344;16.790;2023-04-28T05:37:23;101088.77;;;7.18;66.61
28701;BME280;15877;52.344;16.790;2023-04-28T05:39:57;101085.77;;;7.23;66.79
28701;BME280;15877;52.344;16.790;2023-04-28T05:42:32;100995.98;;;6.73;66.51
28701;BME280;15877;52.344;16.790;2023-04-28T05:45:09;101079.42;;;7.38;67.02
28701;BME280;15877;52.344;16.790;2023-04-28T05:47:43;101084.29;;;7.48;67.55
28701;BME280;15877;52.344;16.790;2023-04-28T05:50:16;101079.92;;;7.57;67.37
28701;BME280;15877;52.344;16.790;2023-04-28T05:52:52;101081.12;;;7.62;67.54
28701;BME280;15877;52.344;16.790;2023-04-28T05:55:26;101079.43;;;7.74;67.31
28701;BME280;15877;52.344;16.790;2023-04-28T05:58:00;101079.80;;;7.82;67.87
28701;BME280;15877;52.344;16.790;2023-04-28T06:00:33;101072.38;;;7.84;67.33
28701;BME280;15877;52.344;16.790;2023-04-28T06:03:06;101076.05;;;8.02;66.67
28701;BME280;15877;52.344;16.790;2023-04-28T06:05:44;101070.63;;;8.14;66.76
28701;BME280;15877;52.344;16.790;2023-04-28T06:08:18;101073.77;;;8.19;67.75
28701;BME280;15877;52.344;16.790;2023-04-28T06:10:55;101073.52;;;8.23;67.45
28701;BME280;15877;52.344;16.790;2023-04-28T06:13:28;101075.17;;;8.31;65.35
28701;BME280;15877;52.344;16.790;2023-04-28T06:16:01;101074.85;;;8.42;64.78
28701;BME280;15877;52.344;16.790;2023-04-28T06:18:36;101056.20;;;8.47;63.73
28701;BME280;15877;52.344;16.790;2023-04-28T06:21:08;101070.55;;;8.65;63.70
28701;BME280;15877;52.344;16.790;2023-04-28T06:23:42;101067.31;;;8.86;62.16
28701;BME280;15877;52.344;16.790;2023-04-28T06:26:15;101065.20;;;8.86;61.45
28701;BME280;15877;52.344;16.790;2023-04-28T06:28:49;101066.98;;;8.98;61.61
28701;BME280;15877;52.344;16.790;2023-04-28T06:31:24;101060.50;;;9.12;61.65
28701;BME280;15877;52.344;16.790;2023-04-28T06:33:57;101061.91;;;9.24;61.56
28701;BME280;15877;52.344;16.790;2023-04-28T06:36:31;101058.33;;;9.38;61.42
28701;BME280;15877;52.344;16.790;2023-04-28T06:39:05;101057.29;;;9.49;61.43
28701;BME280;15877;52.344;16.790;2023-04-28T06:41:39;101058.16;;;9.58;60.41
28701;BME280;15877;52.344;16.790;2023-04-28T06:44:13;101055.34;;;9.70;59.02
28701;BME280;15877;52.344;16.790;2023-04-28T06:46:49;101053.55;;;9.78;58.57
28701;BME280;15877;52.344;16.790;2023-04-28T06:49:22;101052.38;;;9.85;57.29
28701;BME280;15877;52.344;16.790;2023-04-28T06:52:06;101049.75;;;10.03;56.94
28701;BME280;15877;52.344;16.790;2023-04-28T06:54:40;101046.71;;;10.21;56.41
28701;BME280;15877;52.344;16.790;2023-04-28T06:57:12;101045.23;;;10.14;55.78
28701;BME280;15877;52.344;16.790;2023-04-28T06:59:46;101040.94;;;10.21;56.12
28701;BME280;15877;52.344;16.790;2023-04-28T07:02:19;101030.20;;;10.21;56.44
28701;BME280;15877;52.344;16.790;2023-04-28T07:04:52;101032.71;;;10.39;55.89
28701;BME280;15877;52.344;16.790;2023-04-28T07:07:27;101039.86;;;10.59;56.25
28701;BME280;15877;52.344;16.790;2023-04-28T07:10:15;101043.29;;;10.59;56.84
28701;BME280;15877;52.344;16.790;2023-04-28T07:12:50;101042.44;;;10.65;55.79
28701;BME280;15877;52.344;16.790;2023-04-28T07:15:24;101035.89;;;10.71;55.31
28701;BME280;15877;52.344;16.790;2023-04-28T07:17:59;101035.47;;;10.81;54.00
28701;BME280;15877;52.344;16.790;2023-04-28T07:20:34;101032.22;;;10.89;54.37
28701;BME280;15877;52.344;16.790;2023-04-28T07:23:07;101031.42;;;10.97;54.75
28701;BME280;15877;52.344;16.790;2023-04-28T07:25:41;101031.56;;;11.04;54.75
28701;BME280;15877;52.344;16.790;2023-04-28T07:28:15;101026.67;;;11.11;53.18
28701;BME280;15877;52.344;16.790;2023-04-28T07:31:00;101023.77;;;11.18;53.53
28701;BME280;15877;52.344;16.790;2023-04-28T07:33:35;101016.49;;;11.30;53.57
28701;BME280;15877;52.344;16.790;2023-04-28T07:36:10;101006.16;;;11.38;53.21
28701;BME280;15877;52.344;16.790;2023-04-28T07:38:44;100988.92;;;11.36;51.91
28701;BME280;15877;52.344;16.790;2023-04-28T07:41:18;101006.43;;;11.60;50.79
28701;BME280;15877;52.344;16.790;2023-04-28T07:43:51;100996.89;;;11.62;49.46
28701;BME280;15877;52.344;16.790;2023-04-28T07:46:24;100998.34;;;11.74;49.01
28701;BME280;15877;52.344;16.790;2023-04-28T07:48:58;101006.97;;;11.70;47.52
28701;BME280;15877;52.344;16.790;2023-04-28T07:51:35;100992.77;;;11.80;48.13
28701;BME280;15877;52.344;16.790;2023-04-28T07:54:10;100992.07;;;11.80;48.80
28701;BME280;15877;52.344;16.790;2023-04-28T07:56:54;100992.30;;;11.80;49.06
28701;BME280;15877;52.344;16.790;2023-04-28T07:59:30;100987.84;;;11.92;50.39
28701;BME280;15877;52.344;16.790;2023-04-28T08:02:07;100981.60;;;12.04;50.44
28701;BME280;15877;52.344;16.790;2023-04-28T08:04:49;100978.57;;;12.09;50.40
28701;BME280;15877;52.344;16.790;2023-04-28T08:07:25;100972.99;;;12.20;49.14
28701;BME280;15877;52.344;16.790;2023-04-28T08:10:00;100972.78;;;12.31;49.96
28701;BME280;15877;52.344;16.790;2023-04-28T08:12:33;100954.51;;;12.29;49.25
28701;BME280;15877;52.344;16.790;2023-04-28T08:15:08;100962.86;;;12.46;48.79
28701;BME280;15877;52.344;16.790;2023-04-28T08:17:39;100964.95;;;12.54;48.79
28701;BME280;15877;52.344;16.790;2023-04-28T08:20:14;100958.41;;;12.60;49.43
28701;BME280;15877;52.344;16.790;2023-04-28T08:22:53;100957.55;;;12.72;49.37
28701;BME280;15877;52.344;16.790;2023-04-28T08:25:27;100951.52;;;12.77;48.97
28701;BME280;15877;52.344;16.790;2023-04-28T08:28:01;100951.77;;;12.89;49.61
28701;BME280;15877;52.344;16.790;2023-04-28T08:30:44;100948.56;;;12.92;49.57
28701;BME280;15877;52.344;16.790;2023-04-28T08:33:18;100949.05;;;13.02;49.12
28701;BME280;15877;52.344;16.790;2023-04-28T08:35:51;100941.86;;;13.08;47.76
28701;BME280;15877;52.344;16.790;2023-04-28T08:38:25;100909.89;;;13.04;48.15
28701;BME280;15877;52.344;16.790;2023-04-28T08:40:59;100933.33;;;13.25;48.87
28701;BME280;15877;52.344;16.790;2023-04-28T08:43:36;100926.27;;;13.39;49.36
28701;BME280;15877;52.344;16.790;2023-04-28T08:46:15;100918.52;;;13.43;46.98
28701;BME280;15877;52.344;16.790;2023-04-28T08:48:50;100929.23;;;13.53;45.39
28701;BME280;15877;52.344;16.790;2023-04-28T08:51:30;100926.68;;;13.58;45.96
28701;BME280;15877;52.344;16.790;2023-04-28T08:54:05;100927.03;;;13.60;45.39
28701;BME280;15877;52.344;16.790;2023-04-28T08:56:45;100926.14;;;13.63;45.42
28701;BME280;15877;52.344;16.790;2023-04-28T08:59:19;100919.36;;;13.68;45.36
28701;BME280;15877;52.344;16.790;2023-04-28T09:01:51;100907.23;;;13.73;46.25
28701;BME280;15877;52.344;16.790;2023-04-28T09:04:26;100907.44;;;13.85;47.25
28701;BME280;15877;52.344;16.790;2023-04-28T09:07:01;100903.78;;;13.96;46.74
28701;BME280;15877;52.344;16.790;2023-04-28T09:09:34;100897.23;;;14.05;46.37
28701;BME280;15877;52.344;16.790;2023-04-28T09:12:10;100897.05;;;14.10;45.96
28701;BME280;15877;52.344;16.790;2023-04-28T09:14:58;100898.58;;;14.22;44.78
28701;BME280;15877;52.344;16.790;2023-04-28T09:17:49;100895.70;;;14.29;44.52
28701;BME280;15877;52.344;16.790;2023-04-28T09:20:24;100886.56;;;14.33;45.38
28701;BME280;15877;52.344;16.790;2023-04-28T09:23:14;100885.15;;;14.40;45.71
28701;BME280;15877;52.344;16.790;2023-04-28T09:25:59;100886.90;;;14.58;45.07
28701;BME280;15877;52.344;16.790;2023-04-28T09:28:35;100886.41;;;14.71;45.97
28701;BME280;15877;52.344;16.790;2023-04-28T09:31:22;100886.20;;;14.79;47.23
28701;BME280;15877;52.344;16.790;2023-04-28T09:33:59;100880.48;;;14.83;45.26
28701;BME280;15877;52.344;16.790;2023-04-28T09:36:31;100881.43;;;14.88;45.34
28701;BME280;15877;52.344;16.790;2023-04-28T09:39:07;100869.96;;;14.98;46.34
28701;BME280;15877;52.344;16.790;2023-04-28T09:41:43;100867.34;;;15.08;45.47
28701;BME280;15877;52.344;16.790;2023-04-28T09:44:18;100863.48;;;15.21;44.83
28701;BME280;15877;52.344;16.790;2023-04-28T09:46:54;100862.63;;;15.22;43.85
28701;BME280;15877;52.344;16.790;2023-04-28T09:49:26;100841.78;;;15.26;44.77
28701;BME280;15877;52.344;16.790;2023-04-28T09:52:12;100851.11;;;15.46;46.26
28701;BME280;15877;52.344;16.790;2023-04-28T09:54:50;100848.00;;;15.46;45.08
28701;BME280;15877;52.344;16.790;2023-04-28T09:57:23;100842.55;;;15.55;43.85
28701;BME280;15877;52.344;16.790;2023-04-28T09:59:59;100840.50;;;15.59;42.32
28701;BME280;15877;52.344;16.790;2023-04-28T10:02:36;100835.83;;;15.65;42.53
28701;BME280;15877;52.344;16.790;2023-04-28T10:05:30;100829.92;;;15.68;42.84
28701;BME280;15877;52.344;16.790;2023-04-28T10:08:06;100832.93;;;15.72;42.57
28701;BME280;15877;52.344;16.790;2023-04-28T10:10:39;100831.98;;;15.75;42.00
28701;BME280;15877;52.344;16.790;2023-04-28T10:13:12;100824.40;;;15.89;41.67
28701;BME280;15877;52.344;16.790;2023-04-28T10:15:45;100820.86;;;16.00;42.97
28701;BME280;15877;52.344;16.790;2023-04-28T10:18:19;100817.57;;;15.98;44.25
28701;BME280;15877;52.344;16.790;2023-04-28T10:20:54;100818.75;;;16.07;41.51
28701;BME280;15877;52.344;16.790;2023-04-28T10:23:49;100816.98;;;16.19;42.28
28701;BME280;15877;52.344;16.790;2023-04-28T10:29:26;100810.40;;;16.35;42.53
28701;BME280;15877;52.344;16.790;2023-04-28T10:32:24;100787.73;;;16.35;42.01
28701;BME280;15877;52.344;16.790;2023-04-28T10:38:08;100800.70;;;16.65;42.51
28701;BME280;15877;52.344;16.790;2023-04-28T10:40:43;100805.13;;;16.74;41.12
28701;BME280;15877;52.344;16.790;2023-04-28T10:43:33;100785.32;;;16.74;40.96
28701;BME280;15877;52.344;16.790;2023-04-28T10:46:09;100792.64;;;16.83;41.31
28701;BME280;15877;52.344;16.790;2023-04-28T10:48:56;100785.77;;;16.90;41.02
28701;BME280;15877;52.344;16.790;2023-04-28T10:51:33;100783.23;;;17.04;40.77
28701;BME280;15877;52.344;16.790;2023-04-28T10:54:18;100777.61;;;17.10;40.68
28701;BME280;15877;52.344;16.790;2023-04-28T10:57:18;100772.47;;;17.07;40.61
28701;BME280;15877;52.344;16.790;2023-04-28T10:59:51;100772.46;;;17.09;40.35
28701;BME280;15877;52.344;16.790;2023-04-28T11:02:45;100765.27;;;17.19;39.60
28701;BME280;15877;52.344;16.790;2023-04-28T11:05:19;100760.54;;;17.30;39.85
28701;BME280;15877;52.344;16.790;2023-04-28T11:11:23;100752.84;;;17.53;40.23
28701;BME280;15877;52.344;16.790;2023-04-28T11:14:32;100753.14;;;17.70;41.38
28701;BME280;15877;52.344;16.790;2023-04-28T11:17:07;100754.40;;;17.78;39.33
28701;BME280;15877;52.344;16.790;2023-04-28T11:19:43;100747.60;;;17.70;38.85
28701;BME280;15877;52.344;16.790;2023-04-28T11:22:19;100749.34;;;17.83;38.48
28701;BME280;15877;52.344;16.790;2023-04-28T11:24:57;100741.27;;;17.98;38.99
28701;BME280;15877;52.344;16.790;2023-04-28T11:27:32;100741.30;;;18.12;42.76
28701;BME280;15877;52.344;16.790;2023-04-28T11:30:20;100737.65;;;18.21;42.63
28701;BME280;15877;52.344;16.790;2023-04-28T11:32:56;100736.05;;;18.35;41.26
28701;BME280;15877;52.344;16.790;2023-04-28T11:35:41;100732.16;;;18.47;39.87
28701;BME280;15877;52.344;16.790;2023-04-28T11:38:13;100737.06;;;18.60;40.47
28701;BME280;15877;52.344;16.790;2023-04-28T11:41:02;100721.02;;;18.57;39.27
28701;BME280;15877;52.344;16.790;2023-04-28T11:43:36;100734.52;;;18.70;38.88
28701;BME280;15877;52.344;16.790;2023-04-28T11:46:20;100722.61;;;18.59;38.81
28701;BME280;15877;52.344;16.790;2023-04-28T11:48:59;100732.96;;;18.49;38.58
28701;BME280;15877;52.344;16.790;2023-04-28T11:51:35;100724.45;;;18.22;38.76
28701;BME280;15877;52.344;16.790;2023-04-28T11:54:08;100724.35;;;18.08;39.26
28701;BME280;15877;52.344;16.790;2023-04-28T11:56:42;100723.13;;;17.96;39.01
28701;BME280;15877;52.344;16.790;2023-04-28T11:59:26;100716.38;;;17.94;39.56
28701;BME280;15877;52.344;16.790;2023-04-28T12:02:05;100716.64;;;17.88;38.82
28701;BME280;15877;52.344;16.790;2023-04-28T12:04:44;100715.95;;;18.03;38.90
28701;BME280;15877;52.344;16.790;2023-04-28T12:07:18;100700.80;;;18.13;38.97
28701;BME280;15877;52.344;16.790;2023-04-28T12:10:10;100713.40;;;18.17;38.64
28701;BME280;15877;52.344;16.790;2023-04-28T12:12:48;100707.36;;;17.99;40.40
28701;BME280;15877;52.344;16.790;2023-04-28T12:15:38;100704.26;;;17.90;41.03
28701;BME280;15877;52.344;16.790;2023-04-28T12:18:12;100704.70;;;18.02;39.73
28701;BME280;15877;52.344;16.790;2023-04-28T12:20:47;100706.00;;;18.00;39.46
28701;BME280;15877;52.344;16.790;2023-04-28T12:23:30;100703.02;;;17.98;39.45
28701;BME280;15877;52.344;16.790;2023-04-28T12:26:04;100701.14;;;17.88;40.43
28701;BME280;15877;52.344;16.790;2023-04-28T12:28:42;100693.16;;;17.72;40.19
28701;BME280;15877;52.344;16.790;2023-04-28T12:31:15;100693.30;;;17.76;40.03
28701;BME280;15877;52.344;16.790;2023-04-28T12:33:47;100689.55;;;17.71;39.73
28701;BME280;15877;52.344;16.790;2023-04-28T12:36:20;100688.26;;;17.72;40.20
28701;BME280;15877;52.344;16.790;2023-04-28T12:38:54;100688.13;;;17.84;40.40
28701;BME280;15877;52.344;16.790;2023-04-28T12:41:27;100684.56;;;17.96;39.15
28701;BME280;15877;52.344;16.790;2023-04-28T12:44:00;100682.40;;;18.14;38.80
28701;BME280;15877;52.344;16.790;2023-04-28T12:46:33;100676.20;;;18.33;39.58
28701;BME280;15877;52.344;16.790;2023-04-28T12:49:06;100665.49;;;18.52;39.38
28701;BME280;15877;52.344;16.790;2023-04-28T12:51:40;100668.98;;;18.69;40.69
28701;BME280;15877;52.344;16.790;2023-04-28T12:54:14;100657.54;;;18.75;38.60
28701;BME280;15877;52.344;16.790;2023-04-28T12:56:47;100669.78;;;18.91;38.18
28701;BME280;15877;52.344;16.790;2023-04-28T12:59:20;100667.73;;;18.77;38.09
28701;BME280;15877;52.344;16.790;2023-04-28T13:01:53;100665.80;;;18.66;37.95
28701;BME280;15877;52.344;16.790;2023-04-28T13:04:30;100660.44;;;18.52;38.55
28701;BME280;15877;52.344;16.790;2023-04-28T13:07:03;100655.32;;;18.47;40.27
28701;BME280;15877;52.344;16.790;2023-04-28T13:09:37;100655.83;;;18.54;40.50
28701;BME280;15877;52.344;16.790;2023-04-28T13:12:10;100648.10;;;18.68;39.25
28701;BME280;15877;52.344;16.790;2023-04-28T13:14:43;100643.29;;;18.76;39.54
28701;BME280;15877;52.344;16.790;2023-04-28T13:17:16;100639.57;;;18.88;38.63
28701;BME280;15877;52.344;16.790;2023-04-28T13:19:53;100636.66;;;19.06;39.36
28701;BME280;15877;52.344;16.790;2023-04-28T13:22:33;100636.31;;;19.18;38.16
28701;BME280;15877;52.344;16.790;2023-04-28T13:25:05;100622.25;;;19.26;36.73
28701;BME280;15877;52.344;16.790;2023-04-28T13:27:40;100626.96;;;19.60;36.82
28701;BME280;15877;52.344;16.790;2023-04-28T13:30:14;100623.39;;;19.62;36.06
28701;BME280;15877;52.344;16.790;2023-04-28T13:32:47;100618.29;;;19.65;36.98
28701;BME280;15877;52.344;16.790;2023-04-28T13:35:22;100615.87;;;19.65;36.24
28701;BME280;15877;52.344;16.790;2023-04-28T13:37:57;100615.55;;;19.64;35.86
28701;BME280;15877;52.344;16.790;2023-04-28T13:40:33;100614.48;;;19.72;35.31